createdAt,value
2022-09-12T00:02:30.535Z,8.85
2022-09-12T00:07:35.792Z,8.50
2022-09-12T00:12:39.512Z,8.32
2022-09-12T00:17:43.167Z,8.82
2022-09-12T00:22:48.314Z,9.52
2022-09-12T00:27:51.940Z,9.18
2022-09-12T00:32:55.812Z,9.18
2022-09-12T00:38:00.891Z,9.70
2022-09-12T00:43:04.677Z,9.45
2022-09-12T00:48:19.910Z,8.75
2022-09-12T00:53:25.280Z,9.02
2022-09-12T00:58:31.580Z,10.38
2022-09-12T01:03:35.634Z,8.55
2022-09-12T01:08:42.005Z,9.55
2022-09-12T01:13:46.633Z,10.20
2022-09-12T01:19:02.917Z,9.90
2022-09-12T01:24:41.475Z,9.18
2022-09-12T01:30:18.998Z,9.95
2022-09-12T01:35:28.452Z,9.82
2022-09-12T01:40:40.881Z,9.68
2022-09-12T01:45:48.206Z,9.60
2022-09-12T01:50:58.285Z,10.43
2022-09-12T01:56:07.100Z,10.35
2022-09-12T02:01:16.499Z,9.07
2022-09-12T02:06:26.489Z,10.43
2022-09-12T02:11:34.439Z,10.82
2022-09-12T02:16:43.237Z,10.27
2022-09-12T02:21:52.138Z,10.63
2022-09-12T02:26:59.431Z,10.45
2022-09-12T02:32:08.220Z,11.82
2022-09-12T02:37:25.972Z,10.70
2022-09-12T02:42:29.828Z,10.35
2022-09-12T02:47:39.441Z,10.55
2022-09-12T02:52:45.528Z,10.40
2022-09-12T02:57:49.279Z,11.13
2022-09-12T03:03:21.643Z,9.82
2022-09-12T03:08:54.998Z,10.45
2022-09-12T03:14:07.283Z,9.73
2022-09-12T03:19:20.429Z,10.52
2022-09-12T03:24:33.021Z,10.60
2022-09-12T03:29:37.885Z,10.48
2022-09-12T03:34:41.566Z,10.13
2022-09-12T03:39:46.606Z,10.98
2022-09-12T03:44:50.399Z,10.85
2022-09-12T03:49:54.120Z,10.65
2022-09-12T03:54:59.128Z,10.63
2022-09-12T04:00:03.071Z,10.75
2022-09-12T04:05:16.317Z,11.38
2022-09-12T04:10:21.473Z,10.32
2022-09-12T04:15:25.502Z,11.80
2022-09-12T04:20:29.175Z,11.88
2022-09-12T04:25:34.264Z,11.48
2022-09-12T04:30:38.003Z,11.63
2022-09-12T04:35:42.924Z,11.20
2022-09-12T04:40:47.918Z,11.48
2022-09-12T04:45:52.035Z,11.65
2022-09-12T04:50:55.760Z,11.40
2022-09-12T04:56:05.157Z,11.25
2022-09-12T05:01:10.669Z,11.07
2022-09-12T05:06:17.105Z,10.88
2022-09-12T05:11:28.212Z,11.35
2022-09-12T05:16:37.238Z,10.77
2022-09-12T05:21:40.853Z,10.60
2022-09-12T05:26:45.914Z,11.55
2022-09-12T05:31:52.030Z,10.75
2022-09-12T05:36:56.274Z,11.60
2022-09-12T05:42:01.389Z,10.82
2022-09-12T05:47:05.375Z,10.57
2022-09-12T05:52:09.321Z,11.98
2022-09-12T05:57:14.422Z,11.15
2022-09-12T06:02:18.386Z,10.65
2022-09-12T06:07:22.070Z,10.65
2022-09-12T06:12:27.750Z,12.00
2022-09-12T06:17:31.441Z,10.90
2022-09-12T06:22:35.077Z,11.05
2022-09-12T06:27:40.137Z,11.48
2022-09-12T06:32:44.237Z,11.60
2022-09-12T06:37:48.416Z,11.85
2022-09-12T06:42:54.637Z,11.95
2022-09-12T06:48:09.270Z,11.75
2022-09-12T06:53:13.211Z,12.57
2022-09-12T06:58:18.364Z,11.90
2022-09-12T07:03:22.195Z,12.27
2022-09-12T07:08:25.864Z,12.65
2022-09-12T07:13:30.895Z,12.80
2022-09-12T07:18:34.610Z,12.30
2022-09-12T07:23:40.027Z,12.50
2022-09-12T07:28:45.726Z,11.77
2022-09-12T07:33:54.380Z,11.48
2022-09-12T07:38:59.382Z,10.88
2022-09-12T07:44:06.740Z,12.32
2022-09-12T07:49:10.549Z,12.95
2022-09-12T07:54:14.220Z,10.55
2022-09-12T07:59:41.384Z,11.20
2022-09-12T08:04:43.229Z,12.23
2022-09-12T08:09:47.522Z,12.52
2022-09-12T08:14:52.715Z,11.07
2022-09-12T08:19:56.425Z,12.68
2022-09-12T08:25:00.137Z,12.32
2022-09-12T08:30:06.392Z,9.88
2022-09-12T08:35:10.321Z,10.00
2022-09-12T08:40:19.087Z,8.88
2022-09-12T08:45:32.780Z,7.90
2022-09-12T08:50:37.145Z,7.50
2022-09-12T08:55:44.553Z,7.03
2022-09-12T09:00:59.533Z,7.10
2022-09-12T09:06:10.893Z,7.53
2022-09-12T09:11:31.240Z,5.88
2022-09-12T09:16:39.371Z,5.60
2022-09-12T09:21:47.410Z,5.25
2022-09-12T09:26:56.533Z,4.85
2022-09-12T09:32:05.389Z,4.97
2022-09-12T09:37:18.183Z,5.07
2022-09-12T09:42:31.903Z,4.63
2022-09-12T09:47:36.962Z,4.82
2022-09-12T09:52:41.753Z,4.50
2022-09-12T09:57:47.134Z,3.25
2022-09-12T10:03:23.365Z,3.55
2022-09-12T10:13:36.554Z,3.88
2022-09-12T10:18:43.846Z,3.20
2022-09-12T10:23:49.099Z,3.33
2022-09-12T10:28:55.962Z,3.80
2022-09-12T10:34:02.155Z,3.17
2022-09-12T10:39:07.077Z,3.30
2022-09-12T10:44:17.965Z,4.13
2022-09-12T10:49:29.010Z,4.55
2022-09-12T10:54:34.554Z,5.47
2022-09-12T10:59:50.823Z,3.45
2022-09-12T11:05:03.766Z,2.25
2022-09-12T11:10:22.816Z,2.42
2022-09-12T11:15:40.813Z,3.10
2022-09-12T11:21:11.242Z,2.05
2022-09-12T11:26:43.163Z,1.83
2022-09-12T11:32:13.878Z,2.45
2022-09-12T11:37:37.752Z,2.00
2022-09-12T11:42:42.413Z,2.00
2022-09-12T11:47:50.913Z,1.65
2022-09-12T11:52:58.969Z,1.67
2022-09-12T11:58:02.607Z,1.75
2022-09-12T12:03:15.689Z,1.88
2022-09-12T12:08:22.573Z,1.85
2022-09-12T12:13:30.824Z,1.30
2022-09-12T12:18:38.014Z,1.95
2022-09-12T12:24:04.927Z,1.40
2022-09-12T12:29:12.703Z,2.00
2022-09-12T12:34:29.716Z,1.77
2022-09-12T12:40:01.214Z,1.67
2022-09-12T12:45:45.526Z,1.42
2022-09-12T12:50:49.294Z,1.38
2022-09-12T12:55:55.167Z,1.48
2022-09-12T13:01:13.464Z,1.17
2022-09-12T13:06:31.523Z,1.20
2022-09-12T13:11:37.757Z,2.00
2022-09-12T13:16:56.342Z,1.77
2022-09-12T13:22:02.714Z,1.67
2022-09-12T13:27:18.504Z,1.50
2022-09-12T13:32:23.607Z,1.40
2022-09-12T13:37:39.553Z,1.45
2022-09-12T13:42:45.479Z,1.23
2022-09-12T13:47:56.603Z,1.93
2022-09-12T13:53:06.820Z,1.77
2022-09-12T13:58:20.390Z,1.58
2022-09-12T14:03:47.530Z,1.20
2022-09-12T14:08:51.954Z,1.50
2022-09-12T14:13:57.132Z,1.30
2022-09-12T14:19:02.884Z,1.50
2022-09-12T14:24:08.617Z,1.50
2022-09-12T14:29:17.140Z,1.60
2022-09-12T14:34:22.118Z,1.02
2022-09-12T14:39:30.689Z,1.67
2022-09-12T14:44:36.299Z,1.25
2022-09-12T14:49:42.108Z,1.50
2022-09-12T14:54:56.353Z,1.30
2022-09-12T15:00:17.851Z,1.58
2022-09-12T15:05:26.429Z,1.17
2022-09-12T15:10:33.059Z,1.15
2022-09-12T15:20:43.291Z,1.60
2022-09-12T15:30:53.961Z,1.30
2022-09-12T15:35:59.227Z,1.13
2022-09-12T15:41:02.895Z,1.20
2022-09-12T15:46:06.930Z,1.27
2022-09-12T15:51:15.600Z,1.30
2022-09-12T15:56:21.140Z,1.40
2022-09-12T16:01:24.950Z,1.10
2022-09-12T16:06:36.320Z,1.05
2022-09-12T16:11:41.433Z,1.40
2022-09-12T16:16:45.990Z,1.10
2022-09-12T16:21:51.190Z,1.40
2022-09-12T16:26:57.947Z,1.70
2022-09-12T16:32:05.161Z,1.27
2022-09-12T16:37:10.335Z,1.23
2022-09-12T16:42:13.929Z,1.10
2022-09-12T16:47:17.780Z,1.25
2022-09-12T16:52:22.873Z,2.05
2022-09-12T16:57:26.737Z,1.15
2022-09-12T17:02:30.424Z,1.00
2022-09-12T17:07:35.527Z,1.55
2022-09-12T17:12:39.267Z,1.35
2022-09-12T17:17:43.042Z,1.20
2022-09-12T17:22:48.064Z,1.50
2022-09-12T17:27:51.918Z,1.10
2022-09-12T17:32:55.745Z,1.83
2022-09-12T17:38:00.768Z,1.40
2022-09-12T17:43:04.715Z,1.80
2022-09-12T17:48:11.453Z,1.45
2022-09-12T17:58:20.787Z,1.13
2022-09-12T18:03:25.587Z,1.30
2022-09-12T18:08:30.626Z,1.20
2022-09-12T18:13:34.476Z,1.27
2022-09-12T18:18:38.675Z,1.48
2022-09-12T18:23:43.678Z,1.50
2022-09-12T18:28:47.302Z,1.80
2022-09-12T18:33:51.571Z,1.25
2022-09-12T18:38:58.504Z,1.70
2022-09-12T18:44:03.180Z,1.48
2022-09-12T18:49:07.692Z,1.60
2022-09-12T18:54:15.466Z,1.30
2022-09-12T18:59:19.463Z,1.23
2022-09-12T19:04:23.256Z,1.13
2022-09-12T19:09:29.097Z,1.50
2022-09-12T19:14:32.897Z,1.53
2022-09-12T19:19:40.387Z,1.80
2022-09-12T19:24:45.660Z,1.83
2022-09-12T19:29:49.309Z,2.05
2022-09-12T19:34:52.951Z,1.95
2022-09-12T19:39:58.214Z,1.80
2022-09-12T19:45:01.983Z,1.95
2022-09-12T19:50:06.778Z,2.05
2022-09-12T19:55:12.058Z,1.60
2022-09-12T20:00:16.529Z,2.63
2022-09-12T20:05:20.558Z,2.58
2022-09-12T20:10:25.855Z,2.70
2022-09-12T20:15:29.486Z,1.98
2022-09-12T20:20:33.138Z,2.05
2022-09-12T20:25:38.634Z,2.20
2022-09-12T20:30:42.273Z,2.90
2022-09-12T20:35:45.953Z,3.08
2022-09-12T20:40:51.388Z,4.07
2022-09-12T20:45:55.039Z,3.42
2022-09-12T20:51:00.237Z,3.55
2022-09-12T20:56:06.992Z,3.65
2022-09-12T21:06:17.437Z,3.78
2022-09-12T21:11:22.500Z,3.40
2022-09-12T21:16:26.268Z,4.00
2022-09-12T21:21:30.140Z,3.92
2022-09-12T21:26:35.266Z,3.42
2022-09-12T21:31:38.926Z,3.50
2022-09-12T21:36:42.683Z,3.65
2022-09-12T21:41:47.986Z,3.65
2022-09-12T21:46:51.801Z,4.07
2022-09-12T21:51:55.749Z,3.80
2022-09-12T21:57:01.655Z,3.40
2022-09-12T22:02:08.474Z,3.83
2022-09-12T22:07:12.598Z,4.38
2022-09-12T22:12:17.980Z,4.78
2022-09-12T22:17:22.350Z,4.38
2022-09-12T22:22:43.818Z,3.80
2022-09-12T22:27:51.835Z,3.53
2022-09-12T22:32:56.067Z,4.20
2022-09-12T22:38:00.001Z,2.95
2022-09-12T22:43:05.182Z,3.20
2022-09-12T22:48:09.409Z,3.30
2022-09-12T22:53:13.353Z,3.85
2022-09-12T22:58:18.513Z,3.60
2022-09-12T23:03:22.560Z,4.25
2022-09-12T23:08:29.560Z,4.38
2022-09-12T23:13:34.913Z,3.88
2022-09-12T23:18:38.834Z,3.63
2022-09-12T23:23:42.994Z,4.00
2022-09-12T23:28:52.851Z,3.70
2022-09-12T23:33:57.351Z,3.95
2022-09-12T23:39:01.051Z,3.72
2022-09-12T23:44:06.162Z,4.07
2022-09-12T23:49:10.030Z,3.58
2022-09-12T23:54:13.629Z,3.75
2022-09-12T23:59:18.624Z,3.33
